Time;durP1;ratioP1;P1;durP2;ratioP2;P2;SDS_P1;SDS_P2;PMS_P1;PMS_P2;Temp;Humidity;BMP_temperature;BMP_pressure;BME280_temperature;BME280_humidity;BME280_pressure;Samples;Min_cycle;Max_cycle;Signal;HPM_P1;HPM_P2
2023/05/03 00:01:11;;;;;;;;;;;18.10;58.60;;;;;;10171048;28;93751;-61
2023/05/03 00:06:14;;;;;;;;;;;18.10;58.50;;;;;;10172182;28;93906;-61
2023/05/03 00:11:16;;;;;;;;;;;18.10;58.40;;;;;;10172585;28;93595;-61
2023/05/03 00:16:18;;;;;;;;;;;18.10;58.30;;;;;;10173375;28;93821;-66
2023/05/03 00:21:19;;;;;;;;;;;18.10;58.30;;;;;;10173436;28;92705;-67
2023/05/03 00:26:21;;;;;;;;;;;18.10;58.30;;;;;;10173907;28;94480;-68
2023/05/03 00:31:23;;;;;;;;;;;18.10;58.10;;;;;;10154907;28;94098;-67
2023/05/03 00:36:26;;;;;;;;;;;18.00;58.00;;;;;;10168933;28;95850;-67
2023/05/03 00:41:28;;;;;;;;;;;18.00;57.90;;;;;;10169791;28;92638;-67
2023/05/03 00:46:30;;;;;;;;;;;18.00;58.00;;;;;;10170230;28;93584;-66
2023/05/03 00:51:33;;;;;;;;;;;18.00;57.80;;;;;;10171067;28;94278;-66
2023/05/03 00:56:36;;;;;;;;;;;18.00;57.80;;;;;;10170079;28;94455;-61
2023/05/03 01:01:51;;;;;;;;;;;18.00;57.70;;;;;;10170946;28;93460;-61
2023/05/03 01:06:56;;;;;;;;;;;18.00;57.70;;;;;;10170667;28;93637;-61
2023/05/03 01:12:07;;;;;;;;;;;17.90;57.60;;;;;;10172701;28;93859;-61
2023/05/03 01:17:12;;;;;;;;;;;17.90;57.50;;;;;;10170623;28;93382;-61
2023/05/03 01:22:15;;;;;;;;;;;17.90;57.50;;;;;;10170080;28;93558;-61
2023/05/03 01:27:18;;;;;;;;;;;17.90;57.40;;;;;;10168607;28;96820;-61
2023/05/03 01:32:22;;;;;;;;;;;17.90;57.50;;;;;;10169003;28;92880;-61
2023/05/03 01:37:24;;;;;;;;;;;17.80;57.30;;;;;;10152298;28;93689;-66
2023/05/03 01:42:26;;;;;;;;;;;17.80;57.20;;;;;;10171195;28;93375;-67
2023/05/03 01:47:28;;;;;;;;;;;17.80;57.20;;;;;;10173247;28;93813;-67
2023/05/03 01:52:30;;;;;;;;;;;17.80;57.20;;;;;;10152201;28;93961;-67
2023/05/03 01:57:31;;;;;;;;;;;17.80;57.20;;;;;;10170140;28;93681;-61
2023/05/03 02:02:34;;;;;;;;;;;17.80;57.20;;;;;;10169192;28;92586;-61
2023/05/03 02:07:35;;;;;;;;;;;17.70;57.10;;;;;;10168365;28;94116;-61
2023/05/03 02:12:37;;;;;;;;;;;17.80;57.00;;;;;;10168353;28;92818;-61
2023/05/03 02:17:39;;;;;;;;;;;17.70;57.00;;;;;;10148896;28;96972;-61
2023/05/03 02:22:41;;;;;;;;;;;17.70;57.00;;;;;;10167593;28;93947;-61
2023/05/03 02:27:43;;;;;;;;;;;17.70;56.90;;;;;;10169022;28;94077;-61
2023/05/03 02:32:44;;;;;;;;;;;17.70;56.90;;;;;;10168209;28;94424;-67
2023/05/03 02:37:47;;;;;;;;;;;17.70;56.90;;;;;;10140931;28;93525;-66
2023/05/03 02:42:48;;;;;;;;;;;17.70;56.80;;;;;;10128263;28;94425;-68
2023/05/03 02:47:50;;;;;;;;;;;17.60;57.00;;;;;;10139692;28;93518;-67
2023/05/03 02:52:53;;;;;;;;;;;17.60;56.70;;;;;;10168195;28;113300;-61
2023/05/03 02:57:55;;;;;;;;;;;17.60;56.70;;;;;;10168381;28;95084;-61
2023/05/03 03:02:58;;;;;;;;;;;17.60;56.70;;;;;;10149348;28;93151;-67
2023/05/03 03:08:00;;;;;;;;;;;17.60;56.60;;;;;;10147978;28;95842;-67
2023/05/03 03:13:01;;;;;;;;;;;17.60;56.50;;;;;;10167320;28;93523;-61
2023/05/03 03:18:04;;;;;;;;;;;17.60;56.50;;;;;;10167124;28;94562;-61
2023/05/03 03:23:06;;;;;;;;;;;17.60;56.40;;;;;;10165922;28;93448;-61
2023/05/03 03:28:08;;;;;;;;;;;17.60;56.40;;;;;;10167384;28;93554;-61
2023/05/03 03:33:10;;;;;;;;;;;17.60;56.40;;;;;;10167155;28;94492;-61
2023/05/03 03:38:12;;;;;;;;;;;17.60;56.30;;;;;;10165940;28;94765;-61
2023/05/03 03:43:13;;;;;;;;;;;17.60;56.20;;;;;;10167317;28;92835;-67
2023/05/03 05:07:02;;;;;;;;;;;17.40;55.30;;;;;;10206136;28;95048;-66
2023/05/03 05:12:03;;;;;;;;;;;17.40;55.30;;;;;;10211367;28;94193;-66
2023/05/03 05:17:05;;;;;;;;;;;17.40;55.40;;;;;;10209694;28;93243;-66
2023/05/03 05:22:07;;;;;;;;;;;17.40;55.50;;;;;;10210371;28;94084;-66
2023/05/03 05:27:08;;;;;;;;;;;17.40;55.50;;;;;;10192272;28;93656;-66
2023/05/03 05:32:11;;;;;;;;;;;17.40;55.60;;;;;;10210552;28;93441;-66
2023/05/03 05:37:13;;;;;;;;;;;17.30;56.10;;;;;;10210666;28;94319;-66
2023/05/03 05:42:15;;;;;;;;;;;17.40;56.40;;;;;;10211076;28;91870;-66
2023/05/03 05:47:16;;;;;;;;;;;17.40;56.30;;;;;;10208984;28;94482;-66
2023/05/03 05:52:18;;;;;;;;;;;17.40;56.40;;;;;;10209777;28;93041;-66
2023/05/03 05:57:20;;;;;;;;;;;17.40;56.50;;;;;;10189066;28;97249;-66
2023/05/03 06:02:23;;;;;;;;;;;17.40;56.50;;;;;;10209139;28;93723;-66
2023/05/03 06:07:25;;;;;;;;;;;17.40;56.60;;;;;;10209649;28;92821;-65
2023/05/03 06:12:27;;;;;;;;;;;17.40;56.60;;;;;;10209598;28;93588;-66
2023/05/03 06:17:29;;;;;;;;;;;17.40;56.60;;;;;;10208922;28;94293;-65
2023/05/03 06:22:30;;;;;;;;;;;17.40;56.70;;;;;;10208143;28;93738;-65
2023/05/03 06:27:32;;;;;;;;;;;17.50;56.70;;;;;;10209010;28;94259;-65
2023/05/03 06:32:34;;;;;;;;;;;17.50;56.60;;;;;;10208999;28;93635;-65
2023/05/03 06:37:36;;;;;;;;;;;17.50;56.70;;;;;;10207552;28;94466;-65
2023/05/03 06:42:37;;;;;;;;;;;17.50;56.80;;;;;;10208424;28;94674;-65
2023/05/03 06:47:41;;;;;;;;;;;17.60;56.90;;;;;;10188139;28;96857;-65
2023/05/03 06:52:43;;;;;;;;;;;17.60;56.90;;;;;;10208769;28;94804;-65
2023/05/03 06:57:48;;;;;;;;;;;17.60;56.80;;;;;;10189857;28;92930;-65
2023/05/03 07:02:50;;;;;;;;;;;17.70;56.80;;;;;;10189426;28;93607;-66
2023/05/03 07:07:51;;;;;;;;;;;17.70;57.00;;;;;;10189766;28;94481;-66
2023/05/03 07:12:53;;;;;;;;;;;17.70;57.10;;;;;;10188808;28;93521;-66
2023/05/03 07:17:55;;;;;;;;;;;17.70;57.10;;;;;;10206955;28;93898;-66
2023/05/03 07:22:57;;;;;;;;;;;17.80;57.20;;;;;;10208156;28;93802;-66
2023/05/03 07:27:59;;;;;;;;;;;17.80;57.10;;;;;;10205735;28;92813;-66
2023/05/03 07:33:00;;;;;;;;;;;17.80;57.20;;;;;;10189776;28;94599;-66
2023/05/03 07:38:02;;;;;;;;;;;17.80;57.40;;;;;;10185883;28;96283;-66
2023/05/03 07:43:04;;;;;;;;;;;17.80;57.40;;;;;;10207021;28;93847;-66
2023/05/03 07:48:06;;;;;;;;;;;17.80;57.50;;;;;;10207315;28;93763;-66
2023/05/03 07:53:08;;;;;;;;;;;17.90;57.30;;;;;;10213347;28;94547;-62
2023/05/03 07:58:09;;;;;;;;;;;17.90;57.30;;;;;;10213127;28;93283;-62
2023/05/03 08:03:11;;;;;;;;;;;17.90;59.40;;;;;;10213009;28;93553;-62
2023/05/03 08:08:13;;;;;;;;;;;17.90;58.60;;;;;;10212906;28;94765;-63
2023/05/03 08:13:16;;;;;;;;;;;17.90;58.30;;;;;;10213409;28;93897;-63
2023/05/03 08:18:17;;;;;;;;;;;17.90;59.10;;;;;;10211944;28;93507;-62
2023/05/03 08:23:20;;;;;;;;;;;18.00;59.20;;;;;;10194304;28;93584;-63
2023/05/03 08:28:22;;;;;;;;;;;18.00;59.40;;;;;;10206223;28;96845;-63
2023/05/03 08:33:24;;;;;;;;;;;18.00;59.30;;;;;;10210523;28;93751;-63
2023/05/03 08:38:27;;;;;;;;;;;18.00;54.20;;;;;;10209551;28;94440;-63
2023/05/03 08:43:31;;;;;;;;;;;17.90;51.10;;;;;;10209846;28;93677;-63
2023/05/03 08:48:32;;;;;;;;;;;17.80;49.80;;;;;;10210211;28;93297;-63
2023/05/03 08:53:34;;;;;;;;;;;17.70;49.20;;;;;;10210111;28;93277;-63
2023/05/03 08:58:36;;;;;;;;;;;17.60;48.70;;;;;;10209893;28;94728;-63
2023/05/03 09:03:38;;;;;;;;;;;17.60;48.70;;;;;;10194441;28;93360;-63
2023/05/03 09:08:43;;;;;;;;;;;17.50;48.20;;;;;;10210736;28;93497;-64
2023/05/03 09:13:44;;;;;;;;;;;17.40;48.40;;;;;;10210238;28;93358;-63
2023/05/03 09:18:55;;;;;;;;;;;17.40;48.30;;;;;;10190563;28;95831;-64
2023/05/03 09:23:57;;;;;;;;;;;17.40;47.80;;;;;;10210800;28;94579;-64
2023/05/03 09:29:00;;;;;;;;;;;17.40;48.00;;;;;;10210478;28;94361;-63
2023/05/03 09:34:19;;;;;;;;;;;17.40;48.00;;;;;;10210766;28;93620;-63
2023/05/03 09:39:21;;;;;;;;;;;17.30;47.70;;;;;;10209267;28;93314;-64
2023/05/03 09:44:39;;;;;;;;;;;17.30;47.50;;;;;;10209748;28;93382;-63
2023/05/03 09:49:40;;;;;;;;;;;17.30;46.90;;;;;;10191520;28;94465;-63
2023/05/03 09:54:42;;;;;;;;;;;17.40;46.40;;;;;;10210142;28;93173;-63
2023/05/03 09:59:44;;;;;;;;;;;17.40;46.60;;;;;;10190968;28;94555;-63
2023/05/03 10:04:49;;;;;;;;;;;17.40;46.60;;;;;;10208156;28;94489;-63
2023/05/03 10:09:51;;;;;;;;;;;17.50;46.50;;;;;;10203317;28;95768;-63
2023/05/03 10:14:54;;;;;;;;;;;17.40;46.50;;;;;;10188068;28;93555;-63
2023/05/03 10:20:08;;;;;;;;;;;17.50;46.60;;;;;;10189880;28;93029;-64
2023/05/03 10:25:10;;;;;;;;;;;17.60;46.50;;;;;;10204850;28;93613;-63
2023/05/03 10:30:24;;;;;;;;;;;17.60;46.30;;;;;;10207865;28;93458;-64
2023/05/03 10:35:27;;;;;;;;;;;17.60;46.70;;;;;;10208029;28;93690;-63
2023/05/03 10:40:42;;;;;;;;;;;17.60;46.60;;;;;;10207820;28;94482;-63
2023/05/03 10:45:43;;;;;;;;;;;17.60;46.90;;;;;;10208705;28;93820;-62
2023/05/03 10:50:48;;;;;;;;;;;17.60;46.70;;;;;;10207627;28;92770;-64
2023/05/03 10:56:04;;;;;;;;;;;17.70;47.80;;;;;;10207189;28;94666;-63
2023/05/03 11:01:08;;;;;;;;;;;17.70;48.10;;;;;;10204254;28;96856;-63
2023/05/03 11:06:09;;;;;;;;;;;17.70;48.80;;;;;;10208483;28;94617;-63
2023/05/03 11:11:11;;;;;;;;;;;17.70;47.50;;;;;;10206315;28;93574;-63
2023/05/03 11:16:13;;;;;;;;;;;17.80;47.10;;;;;;10205260;28;94489;-63
2023/05/03 11:21:15;;;;;;;;;;;17.80;46.70;;;;;;10205977;28;93521;-63
2023/05/03 11:26:18;;;;;;;;;;;17.80;46.80;;;;;;10206382;28;93252;-62
2023/05/03 11:31:19;;;;;;;;;;;17.80;47.10;;;;;;10188755;28;93549;-62
2023/05/03 11:36:21;;;;;;;;;;;17.80;47.20;;;;;;10207013;28;92827;-62
2023/05/03 11:41:23;;;;;;;;;;;17.80;46.40;;;;;;10206478;28;93349;-65
2023/05/03 11:46:26;;;;;;;;;;;17.70;47.10;;;;;;10206906;28;94593;-64
2023/05/03 11:51:29;;;;;;;;;;;17.70;46.50;;;;;;10202871;28;96022;-64
2023/05/03 11:56:30;;;;;;;;;;;17.70;46.80;;;;;;10205997;28;94302;-64
2023/05/03 12:01:32;;;;;;;;;;;17.80;47.00;;;;;;10205533;28;94254;-65
2023/05/03 12:06:35;;;;;;;;;;;17.80;47.10;;;;;;10188637;28;93594;-64
2023/05/03 12:11:41;;;;;;;;;;;17.80;47.10;;;;;;10205941;28;94541;-63
2023/05/03 12:16:48;;;;;;;;;;;17.80;47.30;;;;;;10205940;28;94124;-64
2023/05/03 12:21:51;;;;;;;;;;;17.80;47.70;;;;;;10206084;28;94722;-65
2023/05/03 12:27:13;;;;;;;;;;;17.80;48.10;;;;;;10206428;28;95412;-63
2023/05/03 12:32:15;;;;;;;;;;;17.80;48.30;;;;;;10206230;28;95791;-64
2023/05/03 12:37:17;;;;;;;;;;;17.80;48.50;;;;;;10210466;28;94560;-64
2023/05/03 12:42:22;;;;;;;;;;;17.90;48.80;;;;;;10209629;28;96707;-64
2023/05/03 12:47:26;;;;;;;;;;;17.90;48.80;;;;;;10211209;28;96086;-64
2023/05/03 12:52:33;;;;;;;;;;;17.90;48.90;;;;;;10211550;28;94727;-64
2023/05/03 12:57:39;;;;;;;;;;;17.90;48.20;;;;;;10188370;28;94130;-61
2023/05/03 13:02:46;;;;;;;;;;;17.80;47.20;;;;;;10168435;28;93515;-61
2023/05/03 13:07:50;;;;;;;;;;;17.80;46.80;;;;;;10167137;28;93338;-60
2023/05/03 13:12:57;;;;;;;;;;;17.80;46.40;;;;;;10166544;28;94594;-61
2023/05/03 13:18:00;;;;;;;;;;;17.70;46.50;;;;;;10165312;28;92953;-61
2023/05/03 13:23:03;;;;;;;;;;;17.70;46.40;;;;;;10169170;28;95624;-60
2023/05/03 13:28:05;;;;;;;;;;;17.70;46.60;;;;;;10170148;28;93801;-61
2023/05/03 13:33:07;;;;;;;;;;;17.80;47.80;;;;;;10165487;28;95875;-62
2023/05/03 13:44:16;;;;;;;;;;;17.80;47.10;;;;;;10167646;28;92771;-61
2023/05/03 13:49:18;;;;;;;;;;;17.80;46.60;;;;;;10184856;28;93528;-61
2023/05/03 13:54:20;;;;;;;;;;;17.80;46.10;;;;;;10208737;28;93773;-63
2023/05/03 13:59:21;;;;;;;;;;;17.70;46.00;;;;;;10209143;28;94239;-64
2023/05/03 14:04:24;;;;;;;;;;;17.80;46.20;;;;;;10209127;28;93509;-64
2023/05/03 14:09:26;;;;;;;;;;;17.70;46.10;;;;;;10192513;28;92808;-64
2023/05/03 14:14:28;;;;;;;;;;;17.80;46.40;;;;;;10208607;28;94503;-64
2023/05/03 14:19:29;;;;;;;;;;;17.80;46.40;;;;;;10208627;28;93664;-64
2023/05/03 14:24:31;;;;;;;;;;;17.80;46.40;;;;;;10206101;28;95935;-64
2023/05/03 14:29:33;;;;;;;;;;;17.80;46.50;;;;;;10207848;28;93547;-64
2023/05/03 14:34:35;;;;;;;;;;;17.80;46.50;;;;;;10208395;28;92827;-64
2023/05/03 14:39:37;;;;;;;;;;;17.80;46.70;;;;;;10206787;28;93574;-64
2023/05/03 14:44:40;;;;;;;;;;;17.80;47.00;;;;;;10207000;28;94675;-65
2023/05/03 14:49:42;;;;;;;;;;;17.80;46.80;;;;;;10205701;28;93294;-64
2023/05/03 14:54:44;;;;;;;;;;;17.80;46.60;;;;;;10189528;28;94179;-64
2023/05/03 14:59:46;;;;;;;;;;;17.80;46.40;;;;;;10207675;28;93787;-64
2023/05/03 15:04:48;;;;;;;;;;;17.80;46.40;;;;;;10206270;28;94004;-64
2023/05/03 15:09:50;;;;;;;;;;;17.80;47.00;;;;;;10186673;28;93650;-64
2023/05/03 15:14:52;;;;;;;;;;;17.80;47.00;;;;;;10201665;28;95976;-64
2023/05/03 15:19:54;;;;;;;;;;;17.80;46.60;;;;;;10206459;28;94452;-64
2023/05/03 15:24:56;;;;;;;;;;;17.80;47.00;;;;;;10206693;28;94515;-64
2023/05/03 15:29:58;;;;;;;;;;;17.80;46.80;;;;;;10206151;28;93473;-64
2023/05/03 15:34:59;;;;;;;;;;;17.90;46.90;;;;;;10206296;28;94580;-64
2023/05/03 15:40:04;;;;;;;;;;;17.90;46.70;;;;;;10206106;28;93532;-64
2023/05/03 15:45:08;;;;;;;;;;;17.90;46.70;;;;;;10206659;28;94818;-64
2023/05/03 15:50:10;;;;;;;;;;;18.00;46.60;;;;;;10207244;28;93867;-64
2023/05/03 15:55:12;;;;;;;;;;;18.00;46.60;;;;;;10205736;28;93483;-64
2023/05/03 16:00:15;;;;;;;;;;;18.00;46.60;;;;;;10204958;28;93956;-64
2023/05/03 16:05:17;;;;;;;;;;;18.00;46.10;;;;;;10202923;28;95949;-64
2023/05/03 16:10:20;;;;;;;;;;;18.00;45.80;;;;;;10208151;28;94302;-65
2023/05/03 16:15:25;;;;;;;;;;;18.00;48.30;;;;;;10211723;28;93889;-64
2023/05/03 16:20:27;;;;;;;;;;;18.20;48.00;;;;;;10212756;28;93503;-65
2023/05/03 16:25:29;;;;;;;;;;;18.20;48.00;;;;;;10211459;28;92864;-62
2023/05/03 16:30:32;;;;;;;;;;;18.30;47.70;;;;;;10210324;28;93440;-63
2023/05/03 16:35:34;;;;;;;;;;;18.40;47.20;;;;;;10194471;28;93671;-65
2023/05/03 16:40:36;;;;;;;;;;;18.50;47.10;;;;;;10212155;28;94143;-63
2023/05/03 16:45:41;;;;;;;;;;;18.70;47.10;;;;;;10210923;28;93756;-64
2023/05/03 16:50:43;;;;;;;;;;;18.70;46.10;;;;;;10210903;28;94664;-64
2023/05/03 16:55:45;;;;;;;;;;;18.70;45.20;;;;;;10208780;28;95978;-63
2023/05/03 17:00:46;;;;;;;;;;;18.70;45.70;;;;;;10210797;28;93521;-63
2023/05/03 17:05:48;;;;;;;;;;;18.70;45.70;;;;;;10210624;28;92814;-64
2023/05/03 17:10:50;;;;;;;;;;;18.70;45.80;;;;;;10211331;28;94653;-63
2023/05/03 17:15:53;;;;;;;;;;;18.70;46.10;;;;;;10209743;28;93523;-63
2023/05/03 17:20:59;;;;;;;;;;;18.60;45.80;;;;;;10211627;28;95261;-64
2023/05/03 17:26:02;;;;;;;;;;;18.60;45.70;;;;;;10210093;28;94373;-64
2023/05/03 17:31:07;;;;;;;;;;;18.60;45.50;;;;;;10192446;28;92956;-63
2023/05/03 17:36:09;;;;;;;;;;;18.60;45.30;;;;;;10210418;28;94211;-62
2023/05/03 17:41:10;;;;;;;;;;;18.50;45.10;;;;;;10209810;28;93506;-62
2023/05/03 17:46:12;;;;;;;;;;;18.50;45.10;;;;;;10208377;28;97205;-62
2023/05/03 17:51:15;;;;;;;;;;;18.50;45.60;;;;;;10208834;28;93467;-63
2023/05/03 17:56:17;;;;;;;;;;;18.40;45.40;;;;;;10207657;28;93946;-63
2023/05/03 18:01:19;;;;;;;;;;;18.40;45.00;;;;;;10207026;28;93509;-64
2023/05/03 18:06:21;;;;;;;;;;;18.30;45.50;;;;;;10207110;28;93484;-63
2023/05/03 18:11:23;;;;;;;;;;;18.30;45.30;;;;;;10208868;28;94118;-63
2023/05/03 18:16:25;;;;;;;;;;;18.30;45.60;;;;;;10207341;28;93414;-63
2023/05/03 18:21:27;;;;;;;;;;;18.30;46.00;;;;;;10192966;28;94046;-63
2023/05/03 18:26:29;;;;;;;;;;;18.30;46.30;;;;;;10208995;28;92527;-63
2023/05/03 18:31:30;;;;;;;;;;;18.20;46.50;;;;;;10207629;28;94538;-63
2023/05/03 18:36:32;;;;;;;;;;;18.20;46.80;;;;;;10206111;28;95554;-63
2023/05/03 18:41:34;;;;;;;;;;;18.20;47.10;;;;;;10205794;28;94552;-63
2023/05/03 18:46:36;;;;;;;;;;;18.20;47.20;;;;;;10206299;28;93135;-64
2023/05/03 18:51:38;;;;;;;;;;;18.20;47.20;;;;;;10206784;28;93689;-63
2023/05/03 18:56:39;;;;;;;;;;;18.20;47.50;;;;;;10206651;28;93553;-63
2023/05/03 19:01:41;;;;;;;;;;;18.20;47.90;;;;;;10206903;28;93497;-63
2023/05/03 19:06:43;;;;;;;;;;;18.10;48.10;;;;;;10207560;28;93736;-63
2023/05/03 19:11:46;;;;;;;;;;;18.20;48.30;;;;;;10207759;28;93724;-62
2023/05/03 19:16:47;;;;;;;;;;;18.20;49.10;;;;;;10206463;28;94485;-62
2023/05/03 19:21:49;;;;;;;;;;;18.10;49.00;;;;;;10206569;28;94435;-62
2023/05/03 19:26:51;;;;;;;;;;;18.10;49.10;;;;;;10203534;28;95813;-62
2023/05/03 19:31:53;;;;;;;;;;;18.10;49.10;;;;;;10206378;28;93476;-62
2023/05/03 19:36:55;;;;;;;;;;;18.10;49.20;;;;;;10188453;28;94484;-62
2023/05/03 19:41:57;;;;;;;;;;;18.10;49.30;;;;;;10206261;28;94419;-61
2023/05/03 19:46:58;;;;;;;;;;;18.10;49.60;;;;;;10213613;28;93276;-60
2023/05/03 19:52:03;;;;;;;;;;;18.10;49.70;;;;;;10193713;28;93641;-60
2023/05/03 19:57:05;;;;;;;;;;;18.20;50.00;;;;;;10213385;28;93549;-60
2023/05/03 20:02:07;;;;;;;;;;;18.10;49.90;;;;;;10213037;28;92876;-60
2023/05/03 20:07:09;;;;;;;;;;;18.10;50.00;;;;;;10211898;28;94620;-60
2023/05/03 20:12:11;;;;;;;;;;;18.10;50.20;;;;;;10211931;28;94437;-60
2023/05/03 20:17:13;;;;;;;;;;;18.10;50.30;;;;;;10208389;28;97087;-59
2023/05/03 20:22:15;;;;;;;;;;;18.10;50.50;;;;;;10212366;28;94827;-60
2023/05/03 20:27:16;;;;;;;;;;;18.00;50.50;;;;;;10211786;28;94527;-60
2023/05/03 20:32:18;;;;;;;;;;;18.00;50.70;;;;;;10212110;28;94708;-60
2023/05/03 20:37:20;;;;;;;;;;;18.00;50.70;;;;;;10211003;28;94434;-59
2023/05/03 20:42:21;;;;;;;;;;;18.00;50.90;;;;;;10210668;28;94548;-59
2023/05/03 20:47:23;;;;;;;;;;;18.00;50.90;;;;;;10210581;28;94608;-60
2023/05/03 20:52:25;;;;;;;;;;;18.00;51.00;;;;;;10211521;28;92726;-59
2023/05/03 20:57:27;;;;;;;;;;;18.00;51.10;;;;;;10209497;28;93532;-59
2023/05/03 21:02:28;;;;;;;;;;;18.00;51.20;;;;;;10211515;28;93470;-60
2023/05/03 21:07:30;;;;;;;;;;;17.90;51.20;;;;;;10208023;28;96013;-61
2023/05/03 21:12:33;;;;;;;;;;;17.90;51.30;;;;;;10210335;28;93315;-60
2023/05/03 21:17:35;;;;;;;;;;;17.90;51.30;;;;;;10210505;28;93506;-61
2023/05/03 21:22:37;;;;;;;;;;;17.90;51.40;;;;;;10209926;28;93470;-60
2023/05/03 21:27:38;;;;;;;;;;;17.90;51.40;;;;;;10209985;28;94583;-61
2023/05/03 21:32:40;;;;;;;;;;;17.90;51.60;;;;;;10210488;28;94589;-60
2023/05/03 21:37:42;;;;;;;;;;;17.90;51.60;;;;;;10210932;28;94620;-60
2023/05/03 21:42:44;;;;;;;;;;;17.90;51.70;;;;;;10209152;28;92793;-61
2023/05/03 21:47:46;;;;;;;;;;;17.90;51.60;;;;;;10208916;28;94475;-60
2023/05/03 21:52:48;;;;;;;;;;;17.90;51.70;;;;;;10208570;28;94438;-63
2023/05/03 21:57:50;;;;;;;;;;;17.90;51.70;;;;;;10207024;28;95823;-63
2023/05/03 22:02:51;;;;;;;;;;;17.80;51.80;;;;;;10209111;28;94536;-62
2023/05/03 22:07:53;;;;;;;;;;;17.80;51.90;;;;;;10191004;28;93445;-63
2023/05/03 22:12:55;;;;;;;;;;;17.80;51.80;;;;;;10208394;28;93671;-62
2023/05/03 22:17:57;;;;;;;;;;;17.80;51.80;;;;;;10209313;28;93652;-63
2023/05/03 22:22:58;;;;;;;;;;;17.80;51.70;;;;;;10207616;28;94590;-63
2023/05/03 22:28:00;;;;;;;;;;;17.80;51.70;;;;;;10189770;28;93684;-62
2023/05/03 22:33:02;;;;;;;;;;;17.80;51.60;;;;;;10208889;28;92391;-62
2023/05/03 22:38:04;;;;;;;;;;;17.80;51.60;;;;;;10190871;28;94608;-63
2023/05/03 22:43:06;;;;;;;;;;;17.80;51.60;;;;;;10208481;28;93474;-63
2023/05/03 22:48:07;;;;;;;;;;;17.80;51.60;;;;;;10203067;28;95735;-62
2023/05/03 22:53:09;;;;;;;;;;;17.70;51.40;;;;;;10207436;28;94244;-63
2023/05/03 22:58:11;;;;;;;;;;;17.70;51.50;;;;;;10206801;28;93530;-63
2023/05/03 23:03:13;;;;;;;;;;;17.70;51.50;;;;;;10207591;28;93465;-62
2023/05/03 23:08:14;;;;;;;;;;;17.70;51.50;;;;;;10207672;28;94425;-63
2023/05/03 23:13:16;;;;;;;;;;;17.70;51.60;;;;;;10205999;28;93523;-63
2023/05/03 23:18:18;;;;;;;;;;;17.70;51.50;;;;;;10206598;28;94823;-64
2023/05/03 23:23:20;;;;;;;;;;;17.70;51.60;;;;;;10206556;28;92707;-63
2023/05/03 23:28:22;;;;;;;;;;;17.70;51.60;;;;;;10188584;28;94177;-63
2023/05/03 23:33:24;;;;;;;;;;;17.70;51.60;;;;;;10205808;28;93467;-63
2023/05/03 23:38:26;;;;;;;;;;;17.70;51.60;;;;;;10203889;28;96829;-63
2023/05/03 23:43:28;;;;;;;;;;;17.60;51.50;;;;;;10205691;28;93112;-63
2023/05/03 23:48:30;;;;;;;;;;;17.60;51.50;;;;;;10205566;28;93399;-63
2023/05/03 23:53:32;;;;;;;;;;;17.60;51.50;;;;;;10204650;28;93598;-63
2023/05/03 23:58:34;;;;;;;;;;;17.60;51.60;;;;;;10172980;28;94251;-63
